Time;durP1;ratioP1;P1;durP2;ratioP2;P2;SDS_P1;SDS_P2;PMS_P1;PMS_P2;Temp;Humidity;BMP_temperature;BMP_pressure;BME280_temperature;BME280_humidity;BME280_pressure;Samples;Min_cycle;Max_cycle;Signal;HPM_P1;HPM_P2
2023/09/14 00:00:20;;;;;;;3.92;2.00;;;9.90;99.90;;;;;;7373093;19;20030;-65
2023/09/14 00:02:46;;;;;;;2.95;1.73;;;9.90;99.90;;;;;;7375334;19;20592;-65
2023/09/14 00:05:14;;;;;;;2.75;1.80;;;9.90;99.90;;;;;;7371652;19;20545;-64
2023/09/14 00:08:00;;;;;;;4.05;2.10;;;9.90;99.90;;;;;;7371215;19;20023;-64
2023/09/14 00:10:27;;;;;;;2.55;1.90;;;9.90;99.90;;;;;;7372409;19;20022;-64
2023/09/14 00:12:55;;;;;;;2.50;1.50;;;9.90;99.90;;;;;;7375140;19;20022;-65
2023/09/14 00:15:22;;;;;;;3.00;2.03;;;9.90;99.90;;;;;;7372820;19;20018;-64
2023/09/14 00:17:48;;;;;;;4.53;1.63;;;9.90;99.90;;;;;;7373501;19;20507;-65
2023/09/14 00:20:22;;;;;;;2.33;1.73;;;9.80;99.90;;;;;;7373887;19;20014;-64
2023/09/14 00:22:56;;;;;;;2.97;1.55;;;9.80;99.90;;;;;;7374400;19;20398;-64
2023/09/14 00:25:23;;;;;;;2.63;1.30;;;9.80;99.90;;;;;;7374738;19;20010;-64
2023/09/14 00:27:51;;;;;;;2.25;1.60;;;9.80;99.90;;;;;;7375463;19;20029;-64
2023/09/14 00:30:18;;;;;;;3.22;2.17;;;9.80;99.90;;;;;;7370388;19;20026;-65
2023/09/14 00:32:44;;;;;;;3.90;2.05;;;9.70;99.90;;;;;;7372021;19;20886;-65
2023/09/14 00:35:12;;;;;;;5.28;1.83;;;9.80;99.90;;;;;;7368520;19;20022;-65
2023/09/14 00:37:38;;;;;;;2.95;1.30;;;9.80;99.90;;;;;;7372347;19;20701;-65
2023/09/14 00:40:26;;;;;;;4.20;1.67;;;9.80;99.90;;;;;;7375990;19;20014;-64
2023/09/14 00:42:52;;;;;;;2.42;1.45;;;9.80;99.90;;;;;;7373163;19;20390;-64
2023/09/14 00:45:20;;;;;;;2.92;1.70;;;9.70;99.90;;;;;;7371924;19;20027;-64
2023/09/14 00:47:57;;;;;;;4.57;2.25;;;9.70;99.90;;;;;;7374562;19;20029;-64
2023/09/14 00:50:43;;;;;;;3.88;1.70;;;9.70;99.90;;;;;;7375902;19;20080;-64
2023/09/14 00:53:13;;;;;;;5.10;1.73;;;9.60;99.90;;;;;;7372735;19;20039;-64
2023/09/14 00:55:42;;;;;;;7.07;2.08;;;9.60;99.90;;;;;;7374083;19;20482;-64
2023/09/14 00:58:14;;;;;;;3.47;1.75;;;9.60;99.90;;;;;;7372779;19;20553;-64
2023/09/14 01:00:43;;;;;;;6.82;2.05;;;9.60;99.90;;;;;;7369592;19;20481;-64
2023/09/14 01:03:11;;;;;;;8.18;2.20;;;9.60;99.90;;;;;;7377656;19;20351;-64
2023/09/14 01:05:40;;;;;;;3.95;2.35;;;9.60;99.90;;;;;;7389911;19;20973;-65
2023/09/14 01:08:06;;;;;;;3.15;2.22;;;9.60;99.90;;;;;;7383479;19;20052;-64
2023/09/14 01:10:33;;;;;;;2.97;1.90;;;9.60;99.90;;;;;;7386649;19;20015;-64
2023/09/14 01:13:00;;;;;;;2.75;1.67;;;9.50;99.90;;;;;;7382437;19;20046;-64
2023/09/14 01:15:38;;;;;;;3.70;1.95;;;9.50;99.90;;;;;;7386243;19;20049;-65
2023/09/14 01:18:07;;;;;;;3.90;2.45;;;9.50;99.90;;;;;;7385693;19;20519;-65
2023/09/14 01:20:52;;;;;;;5.55;1.70;;;9.50;99.90;;;;;;7382985;19;20030;-64
2023/09/14 01:23:36;;;;;;;5.28;2.28;;;9.40;99.90;;;;;;7386610;19;20018;-65
2023/09/14 01:26:06;;;;;;;4.00;2.08;;;9.40;99.90;;;;;;7383007;19;20513;-64
2023/09/14 01:28:32;;;;;;;3.95;2.40;;;9.40;99.90;;;;;;7388222;19;20017;-64
2023/09/14 01:30:58;;;;;;;5.80;2.67;;;9.40;99.90;;;;;;7383876;19;20021;-64
2023/09/14 01:33:27;;;;;;;5.35;2.63;;;9.40;99.90;;;;;;7383453;19;20018;-65
2023/09/14 01:36:00;;;;;;;5.85;2.97;;;9.40;99.90;;;;;;7380920;19;20156;-65
2023/09/14 01:38:29;;;;;;;5.80;2.13;;;9.30;99.90;;;;;;7378273;19;20022;-65
2023/09/14 01:40:56;;;;;;;3.33;2.00;;;9.30;99.90;;;;;;7383489;19;20057;-65
2023/09/14 01:43:23;;;;;;;2.97;2.05;;;9.30;99.90;;;;;;7382624;19;20041;-64
2023/09/14 01:45:50;;;;;;;1.95;1.10;;;9.20;99.90;;;;;;7386570;19;20015;-64
2023/09/14 01:48:18;;;;;;;2.28;1.10;;;9.20;99.90;;;;;;7384118;19;20112;-64
2023/09/14 01:50:44;;;;;;;1.52;0.88;;;9.10;99.90;;;;;;7389155;19;20019;-64
2023/09/14 01:53:11;;;;;;;5.68;1.05;;;9.10;99.90;;;;;;7381267;19;20022;-64
2023/09/14 01:55:57;;;;;;;2.65;1.30;;;9.10;99.90;;;;;;7382496;19;20670;-65
2023/09/14 01:58:25;;;;;;;2.80;1.40;;;9.00;99.90;;;;;;7381280;19;20041;-64
2023/09/14 02:01:11;;;;;;;2.58;1.50;;;9.00;99.90;;;;;;7383281;19;20019;-64
2023/09/14 02:03:37;;;;;;;2.58;1.83;;;9.10;99.90;;;;;;7384739;19;20026;-65
2023/09/14 02:06:03;;;;;;;2.53;1.35;;;9.00;99.90;;;;;;7380837;19;20038;-65
2023/09/14 02:08:30;;;;;;;7.15;2.70;;;9.00;99.90;;;;;;7384113;19;20034;-65
2023/09/14 02:10:57;;;;;;;4.45;1.70;;;9.00;99.90;;;;;;7386354;19;20018;-64
2023/09/14 02:13:23;;;;;;;3.83;1.50;;;9.00;99.90;;;;;;7382270;19;20492;-65
2023/09/14 02:16:10;;;;;;;4.13;1.40;;;9.00;99.90;;;;;;7375477;19;20038;-64
2023/09/14 02:18:56;;;;;;;3.92;1.40;;;9.00;99.90;;;;;;7378911;19;20541;-66
2023/09/14 02:21:22;;;;;;;4.15;1.77;;;8.90;99.90;;;;;;7378461;19;20022;-65
2023/09/14 02:23:48;;;;;;;2.45;1.20;;;8.90;99.90;;;;;;7380789;19;20678;-65
2023/09/14 02:26:15;;;;;;;2.92;1.70;;;8.90;99.90;;;;;;7372812;19;20035;-64
2023/09/14 02:28:41;;;;;;;3.97;1.80;;;8.80;99.90;;;;;;7379336;19;20094;-64
2023/09/14 02:31:07;;;;;;;2.90;1.30;;;8.80;99.90;;;;;;7376865;19;20022;-64
2023/09/14 02:33:53;;;;;;;3.30;1.65;;;8.80;99.90;;;;;;7377114;19;20049;-65
2023/09/14 02:36:21;;;;;;;3.53;1.52;;;8.80;99.90;;;;;;7377941;19;20239;-66
2023/09/14 02:38:47;;;;;;;3.50;1.20;;;8.80;99.90;;;;;;7377208;19;20681;-65
2023/09/14 02:41:14;;;;;;;4.05;1.60;;;8.80;99.90;;;;;;7375945;19;20019;-66
2023/09/14 02:43:40;;;;;;;4.57;1.80;;;8.70;99.90;;;;;;7377129;19;20033;-65
2023/09/14 02:46:06;;;;;;;4.03;1.45;;;8.70;99.90;;;;;;7375692;19;20039;-66
2023/09/14 02:48:33;;;;;;;1.83;1.25;;;8.70;99.90;;;;;;7378877;19;20014;-64
2023/09/14 02:50:59;;;;;;;3.42;1.48;;;8.70;99.90;;;;;;7375779;19;20025;-65
2023/09/14 02:53:26;;;;;;;4.70;2.15;;;8.70;99.90;;;;;;7376968;19;20094;-65
2023/09/14 02:55:53;;;;;;;4.40;2.00;;;8.70;99.90;;;;;;7373688;19;20416;-65
2023/09/14 02:58:39;;;;;;;3.47;1.77;;;8.60;99.90;;;;;;7372266;19;20015;-66
2023/09/14 03:01:10;;;;;;;2.25;1.60;;;8.60;99.90;;;;;;7373273;19;20010;-64
2023/09/14 03:03:38;;;;;;;5.50;1.97;;;8.60;99.90;;;;;;7371011;19;20027;-65
2023/09/14 03:06:25;;;;;;;4.05;1.90;;;8.60;99.90;;;;;;7376751;19;20057;-64
2023/09/14 03:08:52;;;;;;;5.35;2.25;;;8.60;99.90;;;;;;7375766;19;20424;-65
2023/09/14 03:11:39;;;;;;;3.42;1.88;;;8.60;99.90;;;;;;7375456;19;20371;-64
2023/09/14 03:14:05;;;;;;;5.10;2.00;;;8.60;99.90;;;;;;7374834;19;20019;-64
2023/09/14 03:16:31;;;;;;;3.50;1.52;;;8.60;99.90;;;;;;7367549;19;20506;-64
2023/09/14 03:18:57;;;;;;;2.17;1.30;;;8.50;99.90;;;;;;7374085;19;20023;-64
2023/09/14 03:21:28;;;;;;;4.68;1.50;;;8.50;99.90;;;;;;7373826;19;20603;-65
2023/09/14 03:23:56;;;;;;;4.53;1.38;;;8.50;99.90;;;;;;7373219;19;20037;-64
2023/09/14 03:26:28;;;;;;;2.40;1.17;;;8.50;99.90;;;;;;7371895;19;20501;-64
2023/09/14 03:28:55;;;;;;;3.60;1.40;;;8.40;99.90;;;;;;7375231;19;20026;-65
2023/09/14 03:31:22;;;;;;;3.22;1.50;;;8.40;99.90;;;;;;7374396;19;20018;-65
2023/09/14 03:33:51;;;;;;;3.63;1.80;;;8.40;99.90;;;;;;7377054;19;20879;-64
2023/09/14 03:36:18;;;;;;;3.70;1.75;;;8.40;99.90;;;;;;7368049;19;20384;-65
2023/09/14 03:38:45;;;;;;;3.17;1.70;;;8.40;99.90;;;;;;7372535;19;20025;-65
2023/09/14 03:41:15;;;;;;;3.17;2.00;;;8.40;99.90;;;;;;7370190;19;20010;-64
2023/09/14 03:43:42;;;;;;;3.50;1.88;;;8.40;99.90;;;;;;7373849;19;20018;-64
2023/09/14 03:46:09;;;;;;;4.78;2.30;;;8.40;99.90;;;;;;7370796;19;20031;-64
2023/09/14 03:48:55;;;;;;;3.70;2.00;;;8.40;99.90;;;;;;7372232;19;20014;-64
2023/09/14 03:51:41;;;;;;;4.55;1.70;;;8.30;99.90;;;;;;7369684;19;20023;-64
2023/09/14 03:54:27;;;;;;;4.55;1.80;;;8.30;99.90;;;;;;7366930;19;20033;-64
2023/09/14 03:56:54;;;;;;;3.00;2.00;;;8.30;99.90;;;;;;7371783;19;20482;-64
2023/09/14 03:59:20;;;;;;;2.95;1.83;;;8.30;99.90;;;;;;7373999;19;20090;-65
2023/09/14 04:01:47;;;;;;;3.60;2.00;;;8.30;99.90;;;;;;7371413;19;20019;-64
2023/09/14 04:04:14;;;;;;;4.18;1.70;;;8.30;99.90;;;;;;7371784;19;20023;-65
2023/09/14 04:06:40;;;;;;;2.70;1.25;;;8.30;99.90;;;;;;7371261;19;20053;-65
2023/09/14 04:09:29;;;;;;;4.93;1.10;;;8.20;99.90;;;;;;7371703;19;21564;-65
2023/09/14 04:11:56;;;;;;;3.28;1.20;;;8.20;99.90;;;;;;7370881;19;20630;-65
2023/09/14 04:14:22;;;;;;;1.30;1.00;;;8.20;99.90;;;;;;7374242;19;20026;-65
2023/09/14 04:16:51;;;;;;;2.47;1.25;;;8.20;99.90;;;;;;7370441;19;20011;-65
2023/09/14 04:19:17;;;;;;;3.10;1.13;;;8.20;99.90;;;;;;7372226;19;20022;-65
2023/09/14 04:21:44;;;;;;;1.90;1.13;;;8.20;99.90;;;;;;7371300;19;20535;-65
2023/09/14 04:24:11;;;;;;;5.15;1.20;;;8.20;99.90;;;;;;7368249;19;20025;-65
2023/09/14 04:26:40;;;;;;;3.55;1.50;;;8.10;99.90;;;;;;7371022;19;20048;-64
2023/09/14 04:29:06;;;;;;;2.78;1.63;;;8.20;99.90;;;;;;7370072;19;20025;-65
2023/09/14 04:31:34;;;;;;;4.20;1.60;;;8.20;99.90;;;;;;7370383;19;20010;-65
2023/09/14 04:34:01;;;;;;;4.03;1.55;;;8.20;99.90;;;;;;7373317;19;20018;-65
2023/09/14 04:36:28;;;;;;;2.45;1.58;;;8.20;99.90;;;;;;7368972;19;20073;-65
2023/09/14 04:38:54;;;;;;;3.42;2.00;;;8.10;99.90;;;;;;7370119;19;20022;-65
2023/09/14 04:41:20;;;;;;;2.38;1.52;;;8.20;99.90;;;;;;7367780;19;20022;-65
2023/09/14 04:43:47;;;;;;;4.15;1.70;;;8.10;99.90;;;;;;7372448;19;20018;-64
2023/09/14 04:46:14;;;;;;;3.08;1.70;;;8.10;99.90;;;;;;7369021;19;20546;-65
2023/09/14 04:48:42;;;;;;;2.55;1.70;;;8.20;99.90;;;;;;7371370;19;20616;-66
2023/09/14 04:51:09;;;;;;;3.55;1.92;;;8.20;99.90;;;;;;7371853;19;20018;-65
2023/09/14 04:53:36;;;;;;;4.90;1.83;;;8.10;99.90;;;;;;7370331;19;20018;-65
2023/09/14 04:56:03;;;;;;;4.18;2.08;;;8.10;99.90;;;;;;7372753;19;20037;-65
2023/09/14 04:58:30;;;;;;;7.03;2.30;;;8.10;99.90;;;;;;7367469;19;20014;-63
2023/09/14 05:00:57;;;;;;;4.57;2.50;;;8.10;99.90;;;;;;7371920;19;20098;-65
2023/09/14 05:03:27;;;;;;;4.43;2.60;;;8.10;99.90;;;;;;7367345;19;20026;-65
2023/09/14 05:06:13;;;;;;;3.78;1.95;;;8.20;99.90;;;;;;7368279;19;20018;-65
2023/09/14 05:08:39;;;;;;;4.60;2.47;;;8.20;99.90;;;;;;7366234;19;20019;-66
2023/09/14 05:11:05;;;;;;;8.05;2.80;;;8.20;99.90;;;;;;7369910;19;20120;-66
2023/09/14 05:13:32;;;;;;;4.88;2.88;;;8.20;99.90;;;;;;7371346;19;20014;-64
2023/09/14 05:15:58;;;;;;;6.35;2.95;;;8.20;99.90;;;;;;7371505;19;20021;-65
2023/09/14 05:18:28;;;;;;;7.30;3.72;;;8.20;99.90;;;;;;7364927;19;20063;-65
2023/09/14 05:20:54;;;;;;;7.47;3.63;;;8.30;99.90;;;;;;7365838;19;20015;-65
2023/09/14 05:23:20;;;;;;;7.65;4.18;;;8.30;99.90;;;;;;7362237;19;20019;-65
2023/09/14 05:25:47;;;;;;;7.43;3.88;;;8.30;99.90;;;;;;7372204;19;20033;-65
2023/09/14 05:28:17;;;;;;;7.15;3.80;;;8.30;99.90;;;;;;7368508;19;20600;-68
2023/09/14 05:30:43;;;;;;;4.78;3.97;;;8.40;99.90;;;;;;7367806;19;20768;-65
2023/09/14 05:33:10;;;;;;;5.78;3.70;;;8.40;99.90;;;;;;7369274;19;20015;-65
2023/09/14 05:35:37;;;;;;;5.82;3.97;;;8.40;99.90;;;;;;7370606;19;20014;-65
2023/09/14 05:38:03;;;;;;;8.10;4.05;;;8.50;99.90;;;;;;7367251;19;20018;-64
2023/09/14 05:40:32;;;;;;;5.47;3.55;;;8.50;99.90;;;;;;7368131;19;20458;-65
2023/09/14 05:42:59;;;;;;;8.13;4.47;;;8.50;99.90;;;;;;7366784;19;20011;-65
2023/09/14 05:45:26;;;;;;;9.18;3.47;;;8.60;99.90;;;;;;7371819;19;20058;-66
2023/09/14 05:47:53;;;;;;;6.57;3.60;;;8.60;99.90;;;;;;7368396;19;20027;-65
2023/09/14 05:50:19;;;;;;;3.63;2.50;;;8.60;99.90;;;;;;7373963;19;20440;-65
2023/09/14 05:52:46;;;;;;;9.35;3.38;;;8.60;99.90;;;;;;7375611;19;20015;-62
2023/09/14 05:55:12;;;;;;;7.05;3.60;;;8.60;99.90;;;;;;7378606;19;20031;-63
2023/09/14 05:57:38;;;;;;;5.32;3.10;;;8.70;99.90;;;;;;7374760;19;20018;-65
2023/09/14 06:00:11;;;;;;;6.97;3.45;;;8.70;99.90;;;;;;7378300;19;20487;-65
2023/09/14 06:02:43;;;;;;;6.53;3.90;;;8.80;99.90;;;;;;7377908;19;20015;-65
2023/09/14 06:05:12;;;;;;;6.57;3.65;;;8.80;99.90;;;;;;7377624;19;20018;-64
2023/09/14 06:07:39;;;;;;;5.82;3.72;;;8.90;99.90;;;;;;7378150;19;20378;-65
2023/09/14 06:10:25;;;;;;;6.80;4.18;;;9.00;99.90;;;;;;7376320;19;20013;-65
2023/09/14 06:12:52;;;;;;;9.73;3.90;;;9.10;99.90;;;;;;7381669;19;20017;-66
2023/09/14 06:15:19;;;;;;;7.78;3.78;;;9.10;99.90;;;;;;7373861;19;20014;-64
2023/09/14 06:17:46;;;;;;;5.53;4.00;;;9.30;99.90;;;;;;7377023;19;20073;-64
2023/09/14 06:20:33;;;;;;;9.02;3.97;;;9.30;99.90;;;;;;7377348;19;20761;-65
2023/09/14 06:23:19;;;;;;;5.82;3.60;;;9.50;99.90;;;;;;7371323;19;20034;-66
2023/09/14 06:25:47;;;;;;;8.80;3.90;;;9.70;99.90;;;;;;7374981;19;20620;-72
2023/09/14 06:28:14;;;;;;;7.55;3.92;;;9.80;99.90;;;;;;7376480;19;20022;-65
2023/09/14 06:30:40;;;;;;;6.82;3.50;;;9.90;99.90;;;;;;7371151;19;20014;-65
2023/09/14 06:33:06;;;;;;;6.20;3.30;;;10.10;99.90;;;;;;7376133;19;20259;-66
2023/09/14 06:35:32;;;;;;;8.68;3.67;;;10.30;99.90;;;;;;7376767;19;20014;-65
2023/09/14 06:38:18;;;;;;;6.20;3.13;;;10.50;99.90;;;;;;7372674;19;20026;-66
2023/09/14 06:40:44;;;;;;;6.65;3.30;;;10.70;99.90;;;;;;7374768;19;20011;-65
2023/09/14 06:43:11;;;;;;;7.00;3.42;;;10.80;99.90;;;;;;7371772;19;20525;-66
2023/09/14 06:45:37;;;;;;;7.05;3.00;;;11.10;99.90;;;;;;7377081;19;20022;-66
2023/09/14 06:48:03;;;;;;;7.07;2.58;;;11.40;99.90;;;;;;7370353;19;20038;-66
2023/09/14 06:50:30;;;;;;;4.00;2.50;;;11.60;99.90;;;;;;7373664;19;20018;-65
2023/09/14 06:53:16;;;;;;;6.28;2.60;;;11.90;99.90;;;;;;7374665;19;20021;-65
2023/09/14 06:55:42;;;;;;;8.05;2.78;;;12.10;99.90;;;;;;7371192;19;20018;-63
2023/09/14 06:58:08;;;;;;;4.40;2.20;;;12.40;99.90;;;;;;7372334;19;20019;-65
2023/09/14 07:00:35;;;;;;;5.40;2.75;;;12.60;99.90;;;;;;7370857;19;20018;-64
2023/09/14 07:03:02;;;;;;;8.27;2.35;;;12.90;99.90;;;;;;7364768;19;20030;-64
2023/09/14 07:05:30;;;;;;;5.28;1.95;;;13.10;99.90;;;;;;7373751;19;20035;-66
2023/09/14 07:08:16;;;;;;;6.40;2.45;;;13.30;99.90;;;;;;7368778;19;20020;-67
2023/09/14 07:11:02;;;;;;;5.43;2.40;;;13.60;99.90;;;;;;7374733;19;20019;-65
2023/09/14 07:13:29;;;;;;;5.45;2.33;;;14.00;99.90;;;;;;7371672;19;20025;-64
2023/09/14 07:15:56;;;;;;;8.05;2.30;;;14.20;99.90;;;;;;7376630;19;20482;-64
2023/09/14 07:18:27;;;;;;;6.93;1.98;;;14.60;99.90;;;;;;7373458;19;20035;-64
2023/09/14 07:20:55;;;;;;;5.43;2.00;;;15.00;99.90;;;;;;7373541;19;20022;-64
2023/09/14 07:23:22;;;;;;;5.47;2.28;;;15.60;99.90;;;;;;7371470;19;20010;-65
2023/09/14 07:25:48;;;;;;;4.63;1.83;;;15.90;99.90;;;;;;7378513;19;20077;-64
2023/09/14 07:28:19;;;;;;;7.53;2.35;;;16.50;99.90;;;;;;7374666;19;20355;-64
2023/09/14 07:30:47;;;;;;;4.18;1.85;;;17.00;99.90;;;;;;7374711;19;20022;-63
2023/09/14 07:33:14;;;;;;;7.07;2.03;;;17.40;99.90;;;;;;7372973;19;20793;-64
2023/09/14 07:35:40;;;;;;;3.60;1.70;;;17.60;99.90;;;;;;7373316;19;20042;-64
2023/09/14 07:38:14;;;;;;;5.13;2.00;;;17.90;99.90;;;;;;7372030;19;20086;-64
2023/09/14 07:40:42;;;;;;;5.15;1.55;;;18.20;99.90;;;;;;7373921;19;20810;-64
2023/09/14 07:43:08;;;;;;;6.65;2.17;;;18.40;99.90;;;;;;7373750;19;20033;-64
2023/09/14 07:45:58;;;;;;;5.70;1.85;;;18.50;99.90;;;;;;7376751;19;20014;-64
2023/09/14 07:48:24;;;;;;;6.30;1.77;;;18.80;99.90;;;;;;7370744;19;20049;-64
2023/09/14 07:50:52;;;;;;;9.20;2.65;;;19.00;99.90;;;;;;7374800;19;20103;-64
2023/09/14 07:53:19;;;;;;;6.60;1.92;;;19.10;99.90;;;;;;7368076;19;20022;-63
2023/09/14 07:56:06;;;;;;;3.75;1.85;;;19.50;99.90;;;;;;7369105;19;20050;-64
2023/09/14 07:58:33;;;;;;;5.97;2.22;;;19.80;99.90;;;;;;7370295;19;20501;-63
2023/09/14 08:00:59;;;;;;;5.32;1.83;;;20.20;99.90;;;;;;7372477;19;20029;-64
2023/09/14 08:03:27;;;;;;;5.47;2.08;;;20.40;99.90;;;;;;7368538;19;20022;-63
2023/09/14 08:05:53;;;;;;;7.75;2.22;;;20.90;99.90;;;;;;7370875;19;20019;-64
2023/09/14 08:08:20;;;;;;;5.20;1.67;;;21.00;99.90;;;;;;7367625;19;20023;-64
2023/09/14 08:11:06;;;;;;;6.50;2.42;;;21.30;99.90;;;;;;7367755;19;20015;-65
2023/09/14 08:13:52;;;;;;;8.75;2.40;;;21.30;99.90;;;;;;7371351;19;20434;-65
2023/09/14 08:16:19;;;;;;;8.38;1.88;;;21.50;99.90;;;;;;7369111;19;20677;-65
2023/09/14 08:18:48;;;;;;;8.10;2.28;;;21.60;99.90;;;;;;7370455;19;20018;-65
2023/09/14 08:21:14;;;;;;;9.40;2.10;;;21.90;99.90;;;;;;7367217;19;20026;-63
2023/09/14 08:23:41;;;;;;;6.72;1.75;;;22.30;99.90;;;;;;7370188;19;20025;-65
2023/09/14 08:26:07;;;;;;;7.20;1.80;;;22.40;99.90;;;;;;7365309;19;20033;-67
2023/09/14 08:28:33;;;;;;;9.27;2.30;;;22.50;99.90;;;;;;7371973;19;20014;-66
2023/09/14 08:31:00;;;;;;;6.03;1.80;;;22.40;98.60;;;;;;7369534;19;20513;-66
2023/09/14 08:33:47;;;;;;;10.40;3.53;;;22.80;98.60;;;;;;7373935;19;20512;-63
2023/09/14 08:36:14;;;;;;;9.60;2.30;;;23.10;98.80;;;;;;7372249;19;20018;-65
2023/09/14 08:38:40;;;;;;;7.80;2.80;;;23.10;97.50;;;;;;7369974;19;20022;-66
2023/09/14 08:41:17;;;;;;;7.97;1.83;;;23.30;96.90;;;;;;7365608;19;20971;-65
2023/09/14 08:43:45;;;;;;;8.63;2.30;;;23.30;92.00;;;;;;7369436;19;20022;-65
2023/09/14 08:46:12;;;;;;;6.28;2.28;;;23.60;91.90;;;;;;7367201;19;20253;-65
2023/09/14 08:48:42;;;;;;;9.07;2.28;;;23.80;90.60;;;;;;7375025;19;20031;-63
2023/09/14 08:51:10;;;;;;;5.28;1.80;;;24.10;87.90;;;;;;7364485;19;20014;-69
2023/09/14 08:53:38;;;;;;;7.30;1.70;;;23.90;84.70;;;;;;7372994;19;20057;-69
2023/09/14 08:56:06;;;;;;;8.43;2.10;;;24.30;82.80;;;;;;7368202;19;20014;-67
2023/09/14 08:58:34;;;;;;;7.45;1.92;;;24.50;80.30;;;;;;7372241;19;20014;-67
2023/09/14 09:01:02;;;;;;;8.10;1.55;;;24.40;79.00;;;;;;7369322;19;20014;-65
2023/09/14 09:03:29;;;;;;;6.30;2.17;;;24.30;76.80;;;;;;7370383;19;20808;-66
2023/09/14 09:05:56;;;;;;;6.13;1.83;;;24.50;76.80;;;;;;7370492;19;20557;-63
2023/09/14 09:08:26;;;;;;;5.30;2.08;;;24.80;76.60;;;;;;7370100;19;20018;-64
2023/09/14 09:10:52;;;;;;;6.93;1.85;;;25.00;75.00;;;;;;7370589;19;20086;-67
2023/09/14 09:13:18;;;;;;;8.70;2.10;;;25.00;74.20;;;;;;7374946;19;20498;-66
2023/09/14 09:15:46;;;;;;;5.32;1.63;;;25.00;74.60;;;;;;7369059;19;20026;-64
2023/09/14 09:18:13;;;;;;;5.10;1.58;;;25.10;74.10;;;;;;7372036;19;20619;-63
2023/09/14 09:20:44;;;;;;;5.03;1.55;;;25.10;72.00;;;;;;7369242;19;20023;-64
2023/09/14 09:23:15;;;;;;;7.22;1.75;;;25.20;70.70;;;;;;7370357;19;20019;-65
2023/09/14 09:25:44;;;;;;;5.03;1.52;;;25.40;69.20;;;;;;7378829;19;20359;-63
2023/09/14 09:28:11;;;;;;;6.00;2.03;;;25.80;70.60;;;;;;7374323;19;20094;-66
2023/09/14 09:30:37;;;;;;;7.90;1.85;;;25.80;68.80;;;;;;7378771;19;20014;-67
2023/09/14 09:33:04;;;;;;;3.75;1.55;;;25.80;67.70;;;;;;7376887;19;20021;-64
2023/09/14 09:35:31;;;;;;;5.88;1.73;;;26.00;67.00;;;;;;7377187;19;20061;-65
2023/09/14 09:38:19;;;;;;;8.77;1.75;;;25.80;67.10;;;;;;7369989;19;20018;-65
2023/09/14 09:40:49;;;;;;;7.43;2.58;;;26.00;67.60;;;;;;7372423;19;20948;-64
2023/09/14 09:43:16;;;;;;;7.80;2.03;;;26.20;68.00;;;;;;7372306;19;20014;-64
2023/09/14 09:45:43;;;;;;;8.10;2.40;;;26.20;66.10;;;;;;7377590;19;20022;-65
2023/09/14 09:48:10;;;;;;;6.03;1.58;;;26.40;65.30;;;;;;7371694;19;20019;-64
2023/09/14 09:50:36;;;;;;;5.57;1.70;;;26.20;64.30;;;;;;7375536;19;20802;-64
2023/09/14 09:53:08;;;;;;;4.93;1.52;;;26.70;63.70;;;;;;7373368;19;20038;-64
2023/09/14 09:55:35;;;;;;;5.68;1.77;;;27.00;63.60;;;;;;7374137;19;20022;-64
2023/09/14 09:58:02;;;;;;;8.52;2.17;;;26.70;62.50;;;;;;7373664;19;20018;-64
2023/09/14 10:00:57;;;;;;;4.20;1.67;;;26.90;61.00;;;;;;7374258;19;20019;-63
2023/09/14 10:03:24;;;;;;;6.97;2.05;;;27.30;61.60;;;;;;7374741;19;20023;-64
2023/09/14 10:05:50;;;;;;;6.28;1.98;;;27.70;60.90;;;;;;7372578;19;20625;-64
2023/09/14 10:08:21;;;;;;;5.82;1.90;;;27.20;59.70;;;;;;7371268;19;20035;-63
2023/09/14 10:10:51;;;;;;;5.10;2.00;;;27.80;61.20;;;;;;7375851;19;20042;-63
2023/09/14 10:13:28;;;;;;;7.93;2.20;;;27.90;59.00;;;;;;7375747;19;21476;-66
2023/09/14 10:15:56;;;;;;;7.47;1.95;;;27.00;59.90;;;;;;7373191;19;20498;-66
2023/09/14 10:18:25;;;;;;;10.15;1.95;;;26.60;60.10;;;;;;7372380;19;20054;-64
2023/09/14 10:20:53;;;;;;;3.70;1.92;;;26.90;60.30;;;;;;7372150;19;20026;-64
2023/09/14 10:23:21;;;;;;;6.35;1.85;;;26.60;61.20;;;;;;7367395;19;20367;-62
2023/09/14 10:25:50;;;;;;;8.98;2.38;;;27.10;60.90;;;;;;7371196;19;20086;-68
2023/09/14 10:28:26;;;;;;;4.75;1.70;;;27.90;60.30;;;;;;7367924;19;20542;-68
2023/09/14 10:30:53;;;;;;;5.32;1.92;;;28.20;58.90;;;;;;7371434;19;20019;-68
2023/09/14 10:33:20;;;;;;;9.05;3.58;;;28.80;58.40;;;;;;7370986;19;20015;-67
2023/09/14 10:35:48;;;;;;;6.03;2.60;;;29.10;58.30;;;;;;7369902;19;20018;-67
2023/09/14 10:38:17;;;;;;;8.85;4.85;;;28.90;58.50;;;;;;7371618;19;20151;-64
2023/09/14 10:40:43;;;;;;;8.68;4.95;;;29.20;57.20;;;;;;7375272;19;20880;-67
2023/09/14 10:43:11;;;;;;;13.68;7.05;;;29.50;56.10;;;;;;7367711;19;20022;-67
2023/09/14 10:45:40;;;;;;;6.97;3.17;;;28.90;56.40;;;;;;7371463;19;20619;-69
2023/09/14 10:48:12;;;;;;;7.50;2.42;;;28.70;57.20;;;;;;7375911;19;20014;-67
2023/09/14 10:50:38;;;;;;;4.75;1.70;;;28.30;58.50;;;;;;7375182;19;20468;-67
2023/09/14 10:53:05;;;;;;;8.60;4.90;;;28.50;57.40;;;;;;7374408;19;20358;-67
2023/09/14 10:55:51;;;;;;;5.75;2.60;;;29.00;57.00;;;;;;7375573;19;20022;-68
2023/09/14 10:58:18;;;;;;;11.25;2.13;;;29.20;56.90;;;;;;7378075;19;20029;-68
2023/09/14 11:00:44;;;;;;;11.20;8.77;;;28.60;56.30;;;;;;7373018;19;20018;-67
2023/09/14 11:03:12;;;;;;;13.77;6.13;;;28.40;56.50;;;;;;7373233;19;20043;-67
2023/09/14 11:05:48;;;;;;;8.60;3.30;;;29.20;56.10;;;;;;7372783;19;20025;-67
2023/09/14 11:08:15;;;;;;;8.77;6.22;;;29.50;54.40;;;;;;7376657;19;20109;-67
2023/09/14 11:10:59;;;;;;;7.40;2.95;;;29.60;55.00;;;;;;7371382;19;20064;-68
2023/09/14 11:13:30;;;;;;;8.10;2.20;;;28.80;54.20;;;;;;7370914;19;20064;-67
2023/09/14 11:16:12;;;;;;;6.97;2.38;;;28.10;56.60;;;;;;7365688;19;20022;-68
2023/09/14 11:19:00;;;;;;;6.03;1.70;;;28.60;56.10;;;;;;7370821;19;20018;-66
2023/09/14 11:21:32;;;;;;;7.40;3.63;;;28.70;55.60;;;;;;7373602;19;20026;-67
2023/09/14 11:24:08;;;;;;;12.27;6.88;;;29.00;53.50;;;;;;7374267;19;20033;-68
2023/09/14 11:26:38;;;;;;;6.60;2.22;;;28.20;54.70;;;;;;7370539;19;20065;-68
2023/09/14 11:29:05;;;;;;;6.35;2.10;;;27.60;56.40;;;;;;7374110;19;20398;-67
2023/09/14 11:31:56;;;;;;;7.80;2.40;;;28.10;57.00;;;;;;7368763;19;20022;-66
2023/09/14 11:34:24;;;;;;;23.85;21.27;;;26.80;56.10;;;;;;7371499;19;20018;-67
2023/09/14 11:37:13;;;;;;;6.15;2.97;;;25.90;58.20;;;;;;7371703;19;20022;-67
2023/09/14 11:39:40;;;;;;;8.18;3.17;;;25.10;58.80;;;;;;7375139;19;20030;-63
2023/09/14 11:42:07;;;;;;;4.88;2.30;;;24.90;58.70;;;;;;7374327;19;21029;-65
2023/09/14 11:44:46;;;;;;;13.95;9.68;;;26.00;58.90;;;;;;7371922;19;20042;-67
2023/09/14 11:47:37;;;;;;;10.55;4.72;;;27.20;56.20;;;;;;7368640;19;20039;-66
2023/09/14 11:50:05;;;;;;;;;;;28.30;53.50;;;;;;7373744;19;20023;-66
2023/09/14 11:52:33;;;;;;;8.10;2.88;;;28.00;53.40;;;;;;7369680;19;19926;-66
2023/09/14 11:55:00;;;;;;;7.35;2.20;;;28.10;53.30;;;;;;7374208;19;20077;-64
2023/09/14 11:57:27;;;;;;;7.70;3.78;;;28.50;54.00;;;;;;7368285;19;20094;-65
2023/09/14 11:59:53;;;;;;;7.85;3.05;;;28.50;53.70;;;;;;7371045;19;20011;-66
2023/09/14 12:02:20;;;;;;;19.65;17.63;;;27.70;53.30;;;;;;7368254;19;20022;-66
2023/09/14 12:04:47;;;;;;;17.95;12.90;;;26.80;54.00;;;;;;7374523;19;20026;-65
2023/09/14 12:07:13;;;;;;;5.90;2.80;;;26.10;55.80;;;;;;7371708;19;20816;-65
2023/09/14 12:09:40;;;;;;;7.05;2.47;;;25.70;56.50;;;;;;7374527;19;20025;-65
2023/09/14 12:12:13;;;;;;;8.18;3.47;;;26.40;56.90;;;;;;7368240;19;20026;-65
2023/09/14 12:14:43;;;;;;;8.52;3.38;;;27.50;55.30;;;;;;7371350;19;20057;-65
2023/09/14 12:17:25;;;;;;;7.75;3.22;;;28.60;53.60;;;;;;7367598;19;20041;-66
2023/09/14 12:19:59;;;;;;;7.85;3.13;;;28.80;52.60;;;;;;7372578;19;20026;-65
2023/09/14 12:22:29;;;;;;;5.82;2.90;;;29.10;52.50;;;;;;7365742;19;20022;-65
2023/09/14 12:25:17;;;;;;;11.60;7.15;;;29.30;53.20;;;;;;7369229;19;20022;-66
2023/09/14 12:27:44;;;;;;;5.35;2.20;;;29.80;52.10;;;;;;7373446;19;20029;-66
2023/09/14 12:30:11;;;;;;;7.20;2.47;;;29.90;52.20;;;;;;7366514;19;20081;-64
2023/09/14 12:32:38;;;;;;;22.58;20.23;;;30.20;51.40;;;;;;7367783;19;20026;-66
2023/09/14 12:35:06;;;;;;;7.95;4.20;;;29.60;51.00;;;;;;7372012;19;20045;-66
2023/09/14 12:37:33;;;;;;;13.02;10.65;;;28.60;51.60;;;;;;7370666;19;20018;-66
2023/09/14 12:40:07;;;;;;;7.70;2.63;;;27.10;52.60;;;;;;7371400;19;20014;-65
2023/09/14 12:42:35;;;;;;;13.13;9.57;;;27.10;53.70;;;;;;7371894;19;20026;-65
2023/09/14 12:45:01;;;;;;;7.78;2.92;;;26.30;55.40;;;;;;7370450;19;20034;-65
2023/09/14 12:47:27;;;;;;;27.33;24.30;;;25.60;55.80;;;;;;7373457;19;20022;-65
2023/09/14 12:50:01;;;;;;;9.30;3.67;;;25.10;56.70;;;;;;7370171;19;20045;-65
2023/09/14 12:52:27;;;;;;;7.22;2.25;;;25.70;56.90;;;;;;7371229;19;20113;-66
2023/09/14 12:54:56;;;;;;;7.53;2.22;;;25.90;56.40;;;;;;7373539;19;20018;-67
2023/09/14 12:57:22;;;;;;;8.32;2.95;;;26.60;55.70;;;;;;7371528;19;20045;-67
2023/09/14 13:00:20;;;;;;;7.07;2.72;;;27.60;54.60;;;;;;7373174;19;20018;-68
2023/09/14 13:02:48;;;;;;;8.70;3.05;;;28.50;52.10;;;;;;7371550;19;20018;-62
2023/09/14 13:05:15;;;;;;;7.18;2.55;;;29.00;52.70;;;;;;7369428;19;20021;-68